Airfield :
LOGIN :

Register | Disclaimer

   EN    FR    IT 

 










Legend :    VFR   Marginal VFR   IFR   Intensive IFR   Very Intensive IFR
Visi :
Ceiling :
>= 8 km
>= 3000ft
5 to 8 km
1000 to 3000 ft
1500m to 5 km
500 to 1000 ft
800 to 1500m
200 to 500 ft
< 800m
< 200 ft
Symbols :   Thunderstorms  Fog  Heavy snow  Heavy precipitations  Wind > 20 kt
SIGMETs :     Misc.  Thunderstorms  Icing  Turbulence  Mountain Waves  Volcanic Ashes






- Airport Elevation : 622 ft
- IATA code : BRS


EGGD - Bristol Int.

CURRENT METAR :
  • 310320Z AUTO 18017G27KT 9999 BKN007 OVC021 13/12 Q1012

EXPIRED METARs :
  • 310250Z AUTO 18016KT 9999 BKN005 OVC010 13/12 Q1013
  • 310220Z AUTO 18010KT 150V210 9999 OVC003 13/13 Q1013
  • 310150Z AUTO 18010G20KT 150V220 9999 -RA OVC003 13/13 Q1014
  • 310120Z AUTO 18012KT 150V210 9999 OVC004 13/13 Q1014
  • 310050Z AUTO 18009KT 140V220 9999 OVC003 13/13 Q1015

TAF AMD TAF EGGD
Valid from the 31 at 02:00 until the 01 at 00:00 UTC


310243Z 3102/3124 18013KT 9999 BKN003
TEMPO 3102/3104 19017G27KT BKN006
PROB30
TEMPO 3102/3104 6000 -RADZ
BECMG 3104/3107 19022G35KT BKN008
TEMPO 3104/3113 6000 RA
PROB30
TEMPO 3105/3108 4000 +RA
PROB40
TEMPO 3110/3112 19028G45KT 3000 +RA
BECMG 3112/3115 25018G30KT SCT025
BECMG 3118/3121 19010KT
PROB40
TEMPO 3121/3124 8000 -RA
ATIS : +44 1275 473 666



MET'MAP, your aeronautical weather chart ! - Copyright ORBIFLY December 2007 - Disclaimer

ORBIFLY MET'MAP TEAM :

Programming & Development : Alexandra Zaïnal
Concept & original design : Baudouin d'Aumeries
Assistance for programming : Marc-Olivier Méhu
Technical & hardware support : Manuel Goepfert

Contact : metmap@orbifly.com




SOURCES & CREDITS :

   NOAA